Pembine, Wisconsin
Current Conditions -  °F | °C
As of 9:54 PM on Friday 31 Oct 2014 (Local Time) from KIMT Reporting Station
Overcast Overcast  
Wind Chill: 22°   Ceiling: 3200
Heat Index: 31°   Visibility: 10mi
Dew Point: 18°   Wind: 10mph
Humidity: 59%   Direction: 350°N
Pressure: 30.44"   Gusts: 20mph
Location:  45.64°N, 87.99°W
Report Text: KIMT 010254Z AUTO 35009G17KT 10SM OVC032 M01/M08 A3044 RMK AO2 SLP326 T10061078 53009
Loading
Personal Weather Stations






























Interactive Weather Map
Tropical Storm Tracking
New forecast layout! Learn more

10-Day Weather Forecast

Advertisements
Track Severe Weather on mobile